Golden Meadow, Louisiana
Current Conditions -  °F | °C
As of 1:55 AM on Thursday 23 Oct 2014 (Local Time) from KXPY Reporting Station
Clear Clear  
Wind Chill: 70°   Ceiling: Unl
Heat Index: 70°   Visibility: 10mi
Dew Point: 61°   Wind: 10mph
Humidity: 73%   Direction: 40°NE
Pressure: 30.06"   Gusts: NA
Location:  29.38°N, 90.26°W
Report Text: KXPY 230655Z AUTO 04009KT 10SM CLR 21/16 A3006 RMK A01
Loading
Personal Weather Stations






























Interactive Weather Map
Tropical Storm Tracking
New forecast layout! Learn more

10-Day Weather Forecast

Advertisements
Track Severe Weather on mobile